Sweet Grass, Montana
Current Conditions -  °F | °C
As of 4:56 PM on Saturday 25 Oct 2014 (Local Time) from KCTB Reporting Station
Clear Clear  
Wind Chill: 52°   Ceiling: Unl
Heat Index: 52°   Visibility: 10mi
Dew Point: 39°   Wind: 13mph
Humidity: 61%   Direction: 130°SE
Pressure: 29.69"   Gusts: NA
Location:  48.99°N, 111.96°W
Report Text: KCTB 252256Z AUTO 13011KT 10SM CLR 11/04 A2969 RMK AO2 SLP053 T01110039
Loading
Personal Weather Stations






























Interactive Weather Map
Tropical Storm Tracking
New forecast layout! Learn more

10-Day Weather Forecast

Advertisements
Track Severe Weather on mobile